createdAt,value
2022-09-03T12:46:34.580Z,38.93
2022-09-03T12:52:08.431Z,36.25
2022-09-03T12:54:44.123Z,34.95
2022-09-03T12:57:22.628Z,34.18
2022-09-03T12:59:54.710Z,34.15
2022-09-03T13:02:46.636Z,33.10
2022-09-03T13:05:19.065Z,33.65
2022-09-03T13:07:53.305Z,32.96
2022-09-03T17:34:33.393Z,49.36
2022-09-03T17:37:22.945Z,51.62
2022-09-03T17:39:59.673Z,53.24
2022-09-03T17:42:29.425Z,55.58
2022-09-03T17:45:07.274Z,56.57
2022-09-03T17:47:52.439Z,57.75
2022-09-03T17:50:28.767Z,58.64
2022-09-03T17:53:01.117Z,60.13
2022-09-03T17:55:35.537Z,60.80
2022-09-03T17:58:14.956Z,62.65
2022-09-03T18:00:56.694Z,64.05
2022-09-03T18:03:44.364Z,65.52
2022-09-03T18:06:40.120Z,66.66
2022-09-03T18:09:38.000Z,68.31
2022-09-03T18:12:11.813Z,70.23
2022-09-03T18:14:51.752Z,71.75
2022-09-03T18:17:18.747Z,74.53
2022-09-03T18:20:30.656Z,76.41
2022-09-03T18:23:45.641Z,77.23
2022-09-03T18:26:38.566Z,79.96
2022-09-03T18:29:26.145Z,82.34
2022-09-03T18:32:11.876Z,85.51
2022-09-03T18:34:57.604Z,86.98
2022-09-03T18:37:44.403Z,91.03
2022-09-03T18:40:33.511Z,97.36
2022-09-03T18:43:25.529Z,98.59
2022-09-03T18:49:48.800Z,100.00
2022-09-03T18:52:40.712Z,100.00
2022-09-03T18:55:26.271Z,100.00
2022-09-03T18:58:12.155Z,100.00
2022-09-03T19:01:05.016Z,100.00
2022-09-03T19:04:10.863Z,100.00
2022-09-03T19:07:08.955Z,100.00
2022-09-03T19:10:07.933Z,100.00
2022-09-03T19:13:00.494Z,100.00
2022-09-03T19:15:52.762Z,100.00
2022-09-03T19:18:38.422Z,100.00
2022-09-03T19:21:50.520Z,100.00
2022-09-03T19:24:37.823Z,100.00
2022-09-03T19:27:50.897Z,100.00
2022-09-03T19:31:07.417Z,100.00
2022-09-03T19:34:11.252Z,100.00
2022-09-03T19:37:09.435Z,100.00
2022-09-03T19:39:55.299Z,100.00
2022-09-03T19:42:52.574Z,100.00
2022-09-03T19:45:58.513Z,100.00
2022-09-03T19:48:55.778Z,100.00
2022-09-03T19:51:43.710Z,100.00
2022-09-03T19:54:29.396Z,100.00
2022-09-03T19:57:16.697Z,100.00
2022-09-03T20:00:04.585Z,100.00
2022-09-03T20:02:58.622Z,100.00
2022-09-03T20:05:44.694Z,100.00
2022-09-03T20:08:32.666Z,100.00
2022-09-03T20:11:00.664Z,100.00
2022-09-03T20:13:28.001Z,100.00
2022-09-03T20:16:09.836Z,100.00
2022-09-03T20:18:37.071Z,100.00
2022-09-03T20:21:13.533Z,100.00
2022-09-03T20:23:48.035Z,100.00
2022-09-03T20:26:27.543Z,100.00
2022-09-03T20:29:13.225Z,100.00
2022-09-03T20:31:50.083Z,100.00
2022-09-03T20:34:17.139Z,100.00
2022-09-03T20:37:03.889Z,100.00
2022-09-03T20:39:34.322Z,100.00
2022-09-03T20:42:30.681Z,100.00
2022-09-03T20:44:57.623Z,100.00
2022-09-03T20:47:43.402Z,100.00
2022-09-03T20:50:13.355Z,100.00
2022-09-03T20:53:06.108Z,100.00
2022-09-03T20:55:36.567Z,100.00
2022-09-03T20:58:03.536Z,100.00
2022-09-03T21:00:38.518Z,100.00
2022-09-03T21:03:14.717Z,100.00
2022-09-03T21:05:41.620Z,100.00
2022-09-03T21:08:09.103Z,100.00
2022-09-03T21:10:43.339Z,100.00
2022-09-03T21:13:10.289Z,100.00
2022-09-03T21:15:42.692Z,100.00
2022-09-03T21:18:28.621Z,100.00
2022-09-03T21:21:05.738Z,100.00
2022-09-03T21:23:39.817Z,100.00
2022-09-03T21:26:15.012Z,100.00
2022-09-03T21:28:45.434Z,100.00
2022-09-03T21:31:21.665Z,100.00
2022-09-03T21:33:50.456Z,100.00
2022-09-03T21:36:20.085Z,100.00
2022-09-03T21:38:57.329Z,100.00
2022-09-03T21:41:29.539Z,100.00
2022-09-03T21:43:56.428Z,100.00
2022-09-03T21:46:28.691Z,100.00
2022-09-03T21:49:00.402Z,100.00
2022-09-03T21:51:44.089Z,100.00
2022-09-03T21:54:14.279Z,100.00
2022-09-03T21:56:44.003Z,100.00
2022-09-03T21:59:10.889Z,100.00
2022-09-03T22:01:37.858Z,100.00
2022-09-03T22:04:04.784Z,100.00
2022-09-03T22:06:43.652Z,100.00
2022-09-03T22:09:13.669Z,100.00
2022-09-03T22:11:45.555Z,100.00
2022-09-03T22:14:16.641Z,100.00
2022-09-03T22:16:55.171Z,100.00
2022-09-03T22:19:23.041Z,100.00
2022-09-03T22:21:59.801Z,100.00
2022-09-03T22:24:26.980Z,100.00
2022-09-03T22:27:10.080Z,100.00
2022-09-03T22:29:37.070Z,100.00
2022-09-03T22:32:25.169Z,100.00
2022-09-03T22:35:18.720Z,100.00
2022-09-03T22:37:55.863Z,100.00
2022-09-03T22:40:37.837Z,100.00
2022-09-03T22:43:17.048Z,100.00
2022-09-03T22:45:54.622Z,100.00
2022-09-03T22:48:24.641Z,100.00
2022-09-03T22:50:51.522Z,100.00
2022-09-03T22:53:24.266Z,100.00
2022-09-03T22:56:14.482Z,100.00
2022-09-03T22:58:56.412Z,100.00
2022-09-03T23:01:42.074Z,100.00
2022-09-03T23:04:18.719Z,100.00
2022-09-03T23:06:53.597Z,100.00
2022-09-03T23:09:22.922Z,100.00
2022-09-03T23:11:51.651Z,100.00
2022-09-03T23:14:28.718Z,100.00
2022-09-03T23:17:16.392Z,100.00
2022-09-03T23:22:35.061Z,100.00
2022-09-03T23:25:02.204Z,100.00
2022-09-03T23:27:35.505Z,100.00
2022-09-03T23:30:03.011Z,100.00
2022-09-03T23:32:33.265Z,100.00
2022-09-03T23:35:02.859Z,100.00
2022-09-03T23:37:34.139Z,100.00
2022-09-03T23:40:21.314Z,100.00
2022-09-03T23:42:51.279Z,100.00
2022-09-03T23:45:18.166Z,100.00
2022-09-03T23:48:00.526Z,100.00
2022-09-03T23:50:45.020Z,100.00
2022-09-03T23:53:11.895Z,100.00
2022-09-03T23:55:44.596Z,100.00
2022-09-03T23:58:20.816Z,100.00
